createdAt,value
2019-05-13T00:01:30.475Z,103953.81
2019-05-13T00:04:03.738Z,103953.09
2019-05-13T00:06:50.216Z,103961.23
2019-05-13T00:09:11.213Z,103957.00
2019-05-13T00:11:44.530Z,103952.20
2019-05-13T00:14:17.623Z,103948.31
2019-05-13T00:16:50.576Z,103948.31
2019-05-13T00:19:24.369Z,103947.61
2019-05-13T00:21:57.927Z,103957.73
2019-05-13T00:24:30.844Z,103949.33
2019-05-13T00:27:04.314Z,103956.51
2019-05-13T00:29:37.303Z,103954.36
2019-05-13T00:32:10.219Z,103954.36
2019-05-13T00:34:44.530Z,103952.26
2019-05-13T00:37:17.636Z,103952.26
2019-05-13T00:39:50.544Z,103950.90
2019-05-13T00:42:24.497Z,103952.23
2019-05-13T00:44:57.611Z,103955.28
2019-05-13T00:47:30.579Z,103958.80
2019-05-13T00:50:03.880Z,103962.77
2019-05-13T00:52:37.187Z,103954.31
2019-05-13T00:55:10.311Z,103958.45
2019-05-13T00:57:43.835Z,103958.45
2019-05-13T01:00:17.423Z,103965.69
2019-05-13T01:02:50.662Z,103966.22
2019-05-13T01:05:23.565Z,103975.63
2019-05-13T01:07:56.860Z,103972.13
2019-05-13T01:10:29.719Z,103962.72
2019-05-13T01:13:04.657Z,103962.70
2019-05-13T01:15:37.577Z,103964.39
2019-05-13T01:18:10.464Z,103964.39
2019-05-13T01:20:43.864Z,103968.73
2019-05-13T01:23:16.971Z,103968.73
2019-05-13T01:25:49.884Z,103961.14
2019-05-13T01:28:23.939Z,103965.17
2019-05-13T01:30:56.926Z,103973.23
2019-05-13T01:33:29.788Z,103962.60
2019-05-13T01:36:05.221Z,103954.16
2019-05-13T01:38:37.449Z,103960.88
2019-05-13T01:41:10.415Z,103960.88
2019-05-13T01:43:44.105Z,103969.37
2019-05-13T01:46:17.147Z,103969.37
2019-05-13T01:48:50.090Z,103976.91
2019-05-13T01:51:23.986Z,103977.86
2019-05-13T01:53:56.891Z,103977.02
2019-05-13T01:56:29.759Z,103974.86
2019-05-13T01:59:03.608Z,103982.05
2019-05-13T02:01:37.247Z,103982.05
2019-05-13T02:04:10.157Z,103983.59
2019-05-13T02:06:44.297Z,103982.73
2019-05-13T02:09:17.560Z,103972.98
2019-05-13T02:11:50.473Z,103976.15
2019-05-13T02:14:23.761Z,103976.15
2019-05-13T02:16:57.199Z,103975.45
2019-05-13T02:19:30.084Z,103973.23
2019-05-13T02:22:03.964Z,103981.73
2019-05-13T02:24:37.520Z,103981.73
2019-05-13T02:27:10.449Z,103975.59
2019-05-13T02:29:44.043Z,103977.35
2019-05-13T02:32:17.103Z,103980.09
2019-05-13T02:34:53.074Z,103981.91
2019-05-13T02:37:29.223Z,103979.23
2019-05-13T02:40:03.480Z,103979.67
2019-05-13T02:42:34.661Z,103977.45
2019-05-13T02:45:07.718Z,103983.25
2019-05-13T02:47:44.081Z,103985.47
2019-05-13T02:50:17.151Z,103985.47
2019-05-13T02:52:52.959Z,103983.23
2019-05-13T02:55:25.081Z,103986.78
2019-05-13T02:57:58.051Z,103986.27
2019-05-13T03:00:32.899Z,103982.23
2019-05-13T03:03:05.801Z,103982.23
2019-05-13T03:05:38.769Z,103984.43
2019-05-13T03:08:12.763Z,103983.53
2019-05-13T03:10:46.096Z,103986.19
2019-05-13T03:13:19.072Z,103981.27
2019-05-13T03:15:52.408Z,103981.27
2019-05-13T03:18:25.359Z,103987.05
2019-05-13T03:20:58.362Z,103989.34
2019-05-13T03:23:32.958Z,103989.34
2019-05-13T03:26:06.482Z,103991.22
2019-05-13T03:28:39.435Z,103996.06
2019-05-13T03:31:16.753Z,103996.06
2019-05-13T03:33:47.844Z,103997.89
2019-05-13T03:36:26.104Z,103997.89
2019-05-13T03:39:05.695Z,104003.71
2019-05-13T03:41:34.177Z,104000.66
2019-05-13T03:44:13.486Z,104003.39
2019-05-13T03:46:48.112Z,104006.94
2019-05-13T03:49:24.101Z,104007.36
2019-05-13T03:51:57.049Z,104010.91
2019-05-13T03:54:32.746Z,104017.15
2019-05-13T03:57:06.035Z,104008.28
2019-05-13T03:59:43.334Z,104014.44
2019-05-13T04:02:14.724Z,104018.42
2019-05-13T04:04:47.787Z,104010.88
2019-05-13T04:07:23.768Z,104010.88
2019-05-13T04:09:55.790Z,104017.83
2019-05-13T04:12:28.781Z,104019.55
2019-05-13T04:15:03.493Z,104019.55
2019-05-13T04:17:37.024Z,104023.09
2019-05-13T04:20:12.659Z,104022.17
2019-05-13T04:22:45.370Z,104014.93
2019-05-13T04:25:18.291Z,104014.93
2019-05-13T04:27:52.447Z,104029.95
2019-05-13T04:30:25.468Z,104029.95
2019-05-13T04:32:58.648Z,104026.77
2019-05-13T04:35:33.618Z,104035.56
2019-05-13T04:38:10.259Z,104041.69
2019-05-13T04:40:42.394Z,104047.85
2019-05-13T04:43:15.956Z,104052.20
2019-05-13T04:45:52.243Z,104052.20
2019-05-13T04:48:24.189Z,104059.03
2019-05-13T04:50:57.262Z,104063.70
2019-05-13T04:53:33.218Z,104065.78
2019-05-13T04:56:05.083Z,104066.51
2019-05-13T04:58:38.175Z,104062.82
2019-05-13T05:01:52.277Z,104065.81
2019-05-13T05:04:30.533Z,104065.81
2019-05-13T05:07:12.809Z,104067.70
2019-05-13T05:10:25.941Z,104066.23
2019-05-13T05:12:57.935Z,104066.23
2019-05-13T05:15:52.581Z,104069.14
2019-05-13T05:19:02.263Z,104057.33
2019-05-13T05:21:43.536Z,104057.33
2019-05-13T05:25:06.734Z,104060.06
2019-05-13T05:28:15.231Z,104059.72
2019-05-13T05:31:26.120Z,104059.72
2019-05-13T05:34:35.633Z,104071.70
2019-05-13T05:37:22.350Z,104069.33
2019-05-13T05:39:56.863Z,104069.33
2019-05-13T05:42:32.218Z,104065.22
2019-05-13T05:45:06.654Z,104064.21
2019-05-13T05:47:41.947Z,104077.70
2019-05-13T05:50:15.093Z,104067.92
2019-05-13T05:52:51.354Z,104069.03
2019-05-13T05:55:27.387Z,104071.08
2019-05-13T05:58:02.301Z,104071.08
2019-05-13T06:00:37.671Z,104078.37
2019-05-13T06:03:13.840Z,104080.49
2019-05-13T06:05:47.032Z,104083.95
2019-05-13T06:08:22.080Z,104083.42
2019-05-13T06:10:55.017Z,104085.86
2019-05-13T06:13:28.438Z,104086.84
2019-05-13T06:16:01.890Z,104087.92
2019-05-13T06:18:34.991Z,104081.86
2019-05-13T06:21:08.216Z,104086.89
2019-05-13T06:23:41.932Z,104086.89
2019-05-13T06:26:14.991Z,104093.33
2019-05-13T06:28:48.030Z,104093.33
2019-05-13T06:31:21.679Z,104089.90
2019-05-13T06:33:54.987Z,104093.69
2019-05-13T06:36:28.146Z,104091.75
2019-05-13T06:39:02.424Z,104093.67
2019-05-13T06:41:35.834Z,104097.94
2019-05-13T06:44:08.874Z,104095.86
2019-05-13T06:46:42.447Z,104099.87
2019-05-13T06:49:15.512Z,104102.89
2019-05-13T06:51:48.702Z,104101.48
2019-05-13T06:54:22.116Z,104107.59
2019-05-13T06:56:55.081Z,104113.74
2019-05-13T06:59:28.076Z,104109.72
2019-05-13T07:02:02.153Z,104105.16
2019-05-13T07:04:35.359Z,104109.73
2019-05-13T07:07:13.277Z,104107.44
2019-05-13T07:09:43.198Z,104104.16
2019-05-13T07:12:16.203Z,104106.67
2019-05-13T07:14:51.155Z,104108.55
2019-05-13T07:17:23.696Z,104115.97
2019-05-13T07:19:56.884Z,104115.97
2019-05-13T07:22:32.114Z,104124.66
2019-05-13T07:25:04.728Z,104129.41
2019-05-13T07:27:38.060Z,104129.41
2019-05-13T07:30:11.495Z,104133.11
2019-05-13T07:32:44.554Z,104129.55
2019-05-13T07:35:17.570Z,104129.55
2019-05-13T07:37:51.733Z,104122.27
2019-05-13T07:40:25.227Z,104128.83
2019-05-13T07:42:58.155Z,104128.83
2019-05-13T07:45:31.665Z,104131.19
2019-05-13T07:48:19.500Z,104127.70
2019-05-13T07:50:55.562Z,104140.64
2019-05-13T07:53:18.646Z,104140.64
2019-05-13T07:55:49.572Z,104144.30
2019-05-13T07:58:23.147Z,104142.03
2019-05-13T08:00:56.327Z,104148.27
2019-05-13T08:03:31.684Z,104149.50
2019-05-13T08:06:04.383Z,104149.50
2019-05-13T08:08:37.584Z,104147.67
2019-05-13T08:11:12.694Z,104149.48
2019-05-13T08:13:45.347Z,104168.36
2019-05-13T08:16:18.391Z,104168.36
2019-05-13T08:18:52.427Z,104177.12
2019-05-13T08:21:25.427Z,104178.05
2019-05-13T08:23:58.363Z,104191.74
2019-05-13T08:26:32.288Z,104191.74
2019-05-13T08:29:06.209Z,104201.52
2019-05-13T08:31:41.197Z,104194.05
2019-05-13T08:34:14.377Z,104196.92
2019-05-13T08:36:47.664Z,104197.10
2019-05-13T08:39:21.736Z,104197.13
2019-05-13T08:41:54.842Z,104197.13
2019-05-13T08:44:32.039Z,104194.91
2019-05-13T08:47:04.088Z,104194.91
2019-05-13T08:49:37.076Z,104190.20
2019-05-13T08:52:12.068Z,104190.20
2019-05-13T08:54:44.909Z,104194.41
2019-05-13T08:57:18.222Z,104189.17
2019-05-13T08:59:51.696Z,104184.60
2019-05-13T09:02:25.079Z,104187.62
2019-05-13T09:04:58.111Z,104187.62
2019-05-13T09:07:32.054Z,104185.63
2019-05-13T09:10:05.493Z,104174.76
2019-05-13T09:12:41.005Z,104190.06
2019-05-13T09:15:13.276Z,104178.67
2019-05-13T09:17:46.211Z,104178.67
2019-05-13T09:20:19.177Z,104178.31
2019-05-13T09:22:52.202Z,104178.27
2019-05-13T09:25:25.233Z,104178.48
2019-05-13T09:27:58.205Z,104180.73
2019-05-13T09:30:31.638Z,104187.61
2019-05-13T09:33:04.755Z,104188.06
2019-05-13T09:35:37.665Z,104184.52
2019-05-13T09:38:12.691Z,104184.52
2019-05-13T09:40:45.513Z,104179.03
2019-05-13T09:43:18.557Z,104179.03
2019-05-13T09:45:52.284Z,104158.37
2019-05-13T09:48:25.800Z,104158.18
2019-05-13T09:50:58.851Z,104157.70
2019-05-13T09:53:32.745Z,104157.70
2019-05-13T09:56:06.029Z,104161.35
2019-05-13T09:58:38.927Z,104164.91
2019-05-13T10:01:12.855Z,104168.86
2019-05-13T10:03:56.996Z,104160.19
2019-05-13T10:06:22.224Z,104161.38
2019-05-13T10:08:55.438Z,104158.89
2019-05-13T10:11:28.408Z,104158.89
2019-05-13T10:14:02.077Z,104161.78
2019-05-13T10:16:35.383Z,104161.00
2019-05-13T10:19:08.481Z,104161.00
2019-05-13T10:21:42.281Z,104143.33
2019-05-13T10:24:15.697Z,104141.51
2019-05-13T10:26:51.366Z,104141.51
2019-05-13T10:29:23.665Z,104129.86
2019-05-13T10:31:56.693Z,104147.82
2019-05-13T10:34:32.137Z,104147.82
2019-05-13T10:37:04.806Z,104141.80
2019-05-13T10:39:38.046Z,104144.24
2019-05-13T10:42:12.108Z,104145.34
2019-05-13T10:44:45.332Z,104142.30
2019-05-13T10:47:18.381Z,104138.70
2019-05-13T10:49:52.361Z,104138.70
2019-05-13T10:52:25.760Z,104132.77
2019-05-13T10:54:58.668Z,104136.84
2019-05-13T10:57:32.090Z,104123.88
2019-05-13T11:00:05.887Z,104139.44
2019-05-13T11:02:38.860Z,104109.73
2019-05-13T11:05:12.532Z,104109.73
2019-05-13T11:07:45.569Z,104096.73
2019-05-13T11:10:22.627Z,104100.95
2019-05-13T11:12:55.569Z,104103.15
2019-05-13T11:15:32.831Z,104103.15
2019-05-13T11:18:03.799Z,104101.02
2019-05-13T11:20:37.271Z,104101.02
2019-05-13T11:23:12.469Z,104109.99
2019-05-13T11:25:45.132Z,104091.44
2019-05-13T11:28:18.446Z,104091.44
2019-05-13T11:30:52.188Z,104083.51
2019-05-13T11:33:25.282Z,104083.51
2019-05-13T11:35:58.161Z,104065.59
2019-05-13T11:38:32.720Z,104063.88
2019-05-13T11:41:05.655Z,104062.84
2019-05-13T11:43:41.205Z,104062.80
2019-05-13T11:46:13.376Z,104062.11
2019-05-13T11:48:46.366Z,104061.04
2019-05-13T11:51:19.626Z,104071.70
2019-05-13T11:53:53.071Z,104061.30
2019-05-13T11:56:26.566Z,104068.64
2019-05-13T11:58:59.563Z,104059.09
2019-05-13T12:04:07.119Z,104049.03
2019-05-13T12:06:47.806Z,104052.39
2019-05-13T12:09:14.632Z,104052.39
2019-05-13T12:11:47.537Z,104048.33
2019-05-13T12:14:43.101Z,104047.67
2019-05-13T12:16:55.190Z,104051.84
2019-05-13T12:19:28.060Z,104052.52
2019-05-13T12:22:02.666Z,104037.59
2019-05-13T12:24:35.701Z,104037.59
2019-05-13T12:27:08.666Z,104036.14
2019-05-13T12:29:43.326Z,104040.39
2019-05-13T12:32:16.245Z,104031.66
2019-05-13T12:34:51.834Z,104036.91
2019-05-13T12:37:23.712Z,104043.84
2019-05-13T12:39:56.717Z,104026.01
2019-05-13T12:42:33.273Z,104016.70
2019-05-13T12:45:09.841Z,104017.30
2019-05-13T12:47:42.648Z,104015.08
2019-05-13T12:50:14.668Z,104016.93
2019-05-13T12:52:47.853Z,104014.65
2019-05-13T12:55:21.772Z,103999.70
2019-05-13T12:57:54.812Z,103999.70
2019-05-13T13:00:27.902Z,104000.98
2019-05-13T13:03:02.031Z,104000.98
2019-05-13T13:05:37.027Z,104012.08
2019-05-13T13:08:24.389Z,104010.89
2019-05-13T13:10:45.009Z,104011.27
2019-05-13T13:13:17.901Z,104011.27
2019-05-13T13:15:52.786Z,104010.20
2019-05-13T13:18:25.654Z,104012.32
2019-05-13T13:21:05.181Z,104004.73
2019-05-13T13:23:34.125Z,103996.39
2019-05-13T13:26:15.317Z,103996.39
2019-05-13T13:28:43.361Z,103992.87
2019-05-13T13:31:16.697Z,103996.21
2019-05-13T13:33:54.047Z,104002.30
2019-05-13T13:36:24.495Z,103992.77
2019-05-13T13:38:57.324Z,103991.55
2019-05-13T13:41:32.787Z,103983.91
2019-05-13T13:44:05.584Z,103983.91
2019-05-13T13:46:44.612Z,103979.16
2019-05-13T13:49:13.845Z,103975.09
2019-05-13T13:51:46.680Z,103980.05
2019-05-13T13:54:22.180Z,103984.04
2019-05-13T13:56:55.975Z,103978.92
2019-05-13T13:59:28.940Z,103973.23
2019-05-13T14:02:05.451Z,103969.41
2019-05-13T14:04:36.362Z,103969.41
2019-05-13T14:07:03.004Z,104059.09
2019-05-13T14:07:27.763Z,103949.72
2019-05-13T14:09:43.846Z,103949.72
2019-05-13T14:12:16.671Z,103951.76
2019-05-13T14:14:51.911Z,103951.76
2019-05-13T14:17:24.339Z,103951.02
2019-05-13T14:19:57.210Z,103958.67
2019-05-13T14:22:32.299Z,103937.91
2019-05-13T14:25:05.187Z,103937.91
2019-05-13T14:27:38.026Z,103943.39
2019-05-13T14:30:11.854Z,103940.27
2019-05-13T14:32:44.847Z,103932.03
2019-05-13T14:35:18.121Z,103926.91
2019-05-13T14:37:51.957Z,103926.72
2019-05-13T14:40:24.949Z,103926.72
2019-05-13T14:42:57.853Z,103928.60
2019-05-13T14:45:31.901Z,103923.72
2019-05-13T14:48:04.874Z,103913.57
2019-05-13T14:50:37.802Z,103910.16
2019-05-13T14:53:10.664Z,103900.81
2019-05-13T14:55:43.505Z,103903.44
2019-05-13T14:58:16.347Z,103908.55
2019-05-13T15:01:07.027Z,103902.42
2019-05-13T15:03:23.847Z,103900.75
2019-05-13T15:05:56.783Z,103900.75
2019-05-13T15:08:32.506Z,103894.58
2019-05-13T15:11:04.469Z,103890.20
2019-05-13T15:13:37.705Z,103894.82
2019-05-13T15:16:10.642Z,103897.61
2019-05-13T15:18:43.712Z,103897.61
2019-05-13T15:21:16.648Z,103898.45
2019-05-13T15:23:51.787Z,103898.45
2019-05-13T15:26:24.337Z,103898.52
2019-05-13T15:28:57.218Z,103890.98
2019-05-13T15:31:31.595Z,103888.78
2019-05-13T15:34:04.876Z,103879.25
2019-05-13T15:36:38.049Z,103879.25
2019-05-13T15:39:11.300Z,103881.68
2019-05-13T15:41:44.897Z,103883.13
2019-05-13T15:44:17.895Z,103885.77
2019-05-13T15:46:52.407Z,103886.50
2019-05-13T15:49:25.299Z,103878.10
2019-05-13T15:51:58.526Z,103878.10
2019-05-13T15:54:32.713Z,103868.67
2019-05-13T15:57:05.815Z,103872.19
2019-05-13T15:59:41.358Z,103872.19
2019-05-13T16:02:13.603Z,103874.44
2019-05-13T16:04:52.127Z,103869.94
2019-05-13T16:07:21.143Z,103869.94
2019-05-13T16:09:54.249Z,103862.09
2019-05-13T16:12:27.148Z,103866.23
2019-05-13T16:15:02.028Z,103866.23
2019-05-13T16:17:41.157Z,103860.29
2019-05-13T16:20:10.012Z,103864.98
2019-05-13T16:22:42.910Z,103864.98
2019-05-13T16:25:16.278Z,103858.78
2019-05-13T16:27:49.300Z,103859.77
2019-05-13T16:30:22.786Z,103856.06
2019-05-13T16:32:55.795Z,103854.33
2019-05-13T16:35:28.624Z,103854.33
2019-05-13T16:38:01.996Z,103860.80
2019-05-13T16:40:36.657Z,103860.80
2019-05-13T16:43:12.616Z,103848.31
2019-05-13T16:45:44.676Z,103848.31
2019-05-13T16:48:17.764Z,103846.95
2019-05-13T16:50:50.721Z,103842.67
2019-05-13T16:53:25.988Z,103841.88
2019-05-13T16:55:58.218Z,103834.78
2019-05-13T16:58:32.385Z,103833.55
2019-05-13T17:01:05.647Z,103832.38
2019-05-13T17:03:41.176Z,103826.60
2019-05-13T17:06:13.432Z,103826.60
2019-05-13T17:08:46.411Z,103830.92
2019-05-13T17:11:19.378Z,103834.83
2019-05-13T17:13:52.280Z,103834.47
2019-05-13T17:16:25.156Z,103833.01
2019-05-13T17:18:58.038Z,103829.28
2019-05-13T17:21:31.689Z,103829.28
2019-05-13T17:24:04.920Z,103832.58
2019-05-13T17:26:37.785Z,103839.11
2019-05-13T17:29:12.016Z,103841.73
2019-05-13T17:31:45.149Z,103843.28
2019-05-13T17:34:18.036Z,103843.28
2019-05-13T17:36:51.951Z,103850.08
2019-05-13T17:39:25.055Z,103846.41
2019-05-13T17:41:57.953Z,103852.12
2019-05-13T17:44:31.800Z,103852.12
2019-05-13T17:47:05.195Z,103850.42
2019-05-13T17:49:38.045Z,103850.42
2019-05-13T17:52:11.598Z,103847.23
2019-05-13T17:54:44.564Z,103849.41
2019-05-13T17:57:17.860Z,103849.41
2019-05-13T17:59:52.138Z,103849.02
2019-05-13T18:02:25.145Z,103856.52
2019-05-13T18:04:58.044Z,103849.91
2019-05-13T18:07:32.109Z,103849.91
2019-05-13T18:10:05.401Z,103856.25
2019-05-13T18:12:38.307Z,103855.55
2019-05-13T18:15:12.314Z,103855.55
2019-05-13T18:17:45.209Z,103846.95
2019-05-13T18:20:18.282Z,103846.95
2019-05-13T18:22:52.373Z,103853.50
2019-05-13T18:25:25.473Z,103847.43
2019-05-13T18:27:58.350Z,103847.43
2019-05-13T18:30:31.767Z,103852.50
2019-05-13T18:33:04.774Z,103855.67
2019-05-13T18:35:37.626Z,103855.67
2019-05-13T18:38:11.907Z,103854.72
2019-05-13T18:40:44.900Z,103850.91
2019-05-13T18:43:17.828Z,103848.25
2019-05-13T18:45:52.571Z,103848.25
2019-05-13T18:48:25.328Z,103849.80
2019-05-13T18:50:58.510Z,103856.09
2019-05-13T18:53:32.184Z,103858.03
2019-05-13T18:56:05.314Z,103855.88
2019-05-13T18:58:38.155Z,103856.29
2019-05-13T19:01:11.372Z,103854.13
2019-05-13T19:03:44.819Z,103851.64
2019-05-13T19:06:17.720Z,103851.64
2019-05-13T19:08:52.687Z,103853.99
2019-05-13T19:11:25.385Z,103864.36
2019-05-13T19:13:58.249Z,103869.19
2019-05-13T19:16:31.924Z,103871.86
2019-05-13T19:19:12.197Z,103871.86
2019-05-13T19:21:41.520Z,103872.36
2019-05-13T19:24:14.450Z,103867.34
2019-05-13T19:26:47.700Z,103862.44
2019-05-13T19:29:21.869Z,103865.88
2019-05-13T19:31:54.864Z,103865.88
2019-05-13T19:34:27.998Z,103871.28
2019-05-13T19:37:02.412Z,103871.28
2019-05-13T19:39:35.619Z,103876.41
2019-05-13T19:42:08.529Z,103875.73
2019-05-13T19:44:42.048Z,103874.09
2019-05-13T19:47:15.170Z,103874.09
2019-05-13T19:49:48.198Z,103879.25
2019-05-13T19:52:21.449Z,103879.25
2019-05-13T19:54:54.754Z,103883.63
2019-05-13T19:57:27.672Z,103894.76
2019-05-13T20:00:01.381Z,103890.25
2019-05-13T20:02:34.761Z,103888.69
2019-05-13T20:05:07.903Z,103892.11
2019-05-13T20:07:41.994Z,103887.91
2019-05-13T20:10:15.344Z,103885.45
2019-05-13T20:12:48.379Z,103888.88
2019-05-13T20:15:22.071Z,103888.88
2019-05-13T20:17:55.361Z,103892.67
2019-05-13T20:20:28.580Z,103891.05
2019-05-13T20:23:01.676Z,103891.05
2019-05-13T20:25:35.021Z,103894.16
2019-05-13T20:28:08.792Z,103890.11
2019-05-13T20:30:43.803Z,103888.00
2019-05-13T20:33:16.400Z,103889.59
2019-05-13T20:35:49.246Z,103884.37
2019-05-13T20:38:22.304Z,103880.19
2019-05-13T20:40:55.497Z,103874.03
2019-05-13T20:43:28.478Z,103874.03
2019-05-13T20:46:02.172Z,103880.45
2019-05-13T20:48:35.360Z,103875.82
2019-05-13T20:51:08.567Z,103877.39
2019-05-13T20:53:41.633Z,103880.77
2019-05-13T20:56:14.610Z,103880.28
2019-05-13T20:58:47.714Z,103880.28
2019-05-13T21:01:20.697Z,103879.05
2019-05-13T21:03:53.620Z,103886.42
2019-05-13T21:06:26.609Z,103884.45
2019-05-13T21:09:01.533Z,103885.13
2019-05-13T21:11:35.051Z,103880.31
2019-05-13T21:14:07.995Z,103882.66
2019-05-13T21:16:41.809Z,103874.83
2019-05-13T21:19:15.183Z,103878.14
2019-05-13T21:21:48.090Z,103877.78
2019-05-13T21:24:21.420Z,103874.84
2019-05-13T21:26:54.443Z,103877.36
2019-05-13T21:29:27.400Z,103878.71
2019-05-13T21:32:01.156Z,103875.40
2019-05-13T21:34:34.137Z,103869.45
2019-05-13T21:37:07.007Z,103865.80
2019-05-13T21:39:41.279Z,103868.55
2019-05-13T21:42:14.388Z,103863.31
2019-05-13T21:44:47.300Z,103861.03
2019-05-13T21:47:22.004Z,103865.54
2019-05-13T21:49:55.243Z,103863.31
2019-05-13T21:52:28.177Z,103858.58
2019-05-13T21:55:01.854Z,103858.78
2019-05-13T21:57:34.930Z,103860.69
2019-05-13T22:00:08.583Z,103849.56
2019-05-13T22:02:41.595Z,103854.06
2019-05-13T22:05:14.666Z,103856.75
2019-05-13T22:07:47.579Z,103855.88
2019-05-13T22:10:21.603Z,103844.33
2019-05-13T22:12:54.721Z,103845.78
2019-05-13T22:15:27.807Z,103852.72
2019-05-13T22:18:01.893Z,103852.72
2019-05-13T22:20:48.989Z,103846.59
2019-05-13T22:23:11.932Z,103840.43
2019-05-13T22:25:44.967Z,103841.31
2019-05-13T22:28:17.919Z,103838.47
2019-05-13T22:30:51.801Z,103842.09
2019-05-13T22:33:25.372Z,103846.73
2019-05-13T22:35:58.349Z,103844.98
2019-05-13T22:38:32.258Z,103844.98
2019-05-13T22:41:05.714Z,103846.41
2019-05-13T22:43:52.460Z,103847.90
2019-05-13T22:46:14.213Z,103843.96
2019-05-13T22:48:47.278Z,103844.50
2019-05-13T22:51:21.388Z,103843.48
2019-05-13T22:53:54.838Z,103843.48
2019-05-13T22:56:27.749Z,103839.86
2019-05-13T22:59:02.103Z,103839.86
2019-05-13T23:01:35.146Z,103842.63
2019-05-13T23:04:08.203Z,103835.59
2019-05-13T23:06:41.404Z,103841.31
2019-05-13T23:09:14.281Z,103841.31
2019-05-13T23:11:47.208Z,103831.75
2019-05-13T23:14:22.025Z,103839.44
2019-05-13T23:16:54.889Z,103831.80
2019-05-13T23:19:28.140Z,103843.84
2019-05-13T23:22:01.580Z,103829.33
2019-05-13T23:24:34.568Z,103829.33
2019-05-13T23:27:07.579Z,103829.03
2019-05-13T23:29:41.257Z,103828.36
2019-05-13T23:32:14.323Z,103828.36
2019-05-13T23:34:47.172Z,103826.26
2019-05-13T23:37:21.839Z,103836.36
2019-05-13T23:39:54.559Z,103836.36
2019-05-13T23:42:27.429Z,103829.28
2019-05-13T23:45:00.265Z,103828.94
2019-05-13T23:47:33.262Z,103827.86
2019-05-13T23:50:06.659Z,103825.75
2019-05-13T23:52:41.821Z,103825.37
2019-05-13T23:55:14.864Z,103825.37
2019-05-13T23:57:47.711Z,103830.30
